createdAt,value
2018-07-03T00:02:01.564Z,16.00
2018-07-03T00:04:32.660Z,16.10
2018-07-03T00:07:04.172Z,16.10
2018-07-03T00:09:35.098Z,16.10
2018-07-03T00:12:06.009Z,16.10
2018-07-03T00:14:37.301Z,16.20
2018-07-03T00:17:13.156Z,16.10
2018-07-03T00:19:44.367Z,16.10
2018-07-03T00:22:15.412Z,16.10
2018-07-03T00:24:46.805Z,16.10
2018-07-03T00:27:18.385Z,16.00
2018-07-03T00:29:49.468Z,15.90
2018-07-03T00:32:20.303Z,15.90
2018-07-03T00:34:51.188Z,15.90
2018-07-03T00:37:22.230Z,15.80
2018-07-03T00:39:53.037Z,15.90
2018-07-03T00:42:24.152Z,15.90
2018-07-03T00:44:55.004Z,15.90
2018-07-03T00:47:25.960Z,15.90
2018-07-03T00:49:57.100Z,15.90
2018-07-03T00:52:28.025Z,15.90
2018-07-03T00:54:58.948Z,15.90
2018-07-03T00:57:29.835Z,15.90
2018-07-03T01:00:11.570Z,15.80
2018-07-03T01:02:42.473Z,15.80
2018-07-03T01:05:13.664Z,15.80
2018-07-03T01:07:44.755Z,15.80
2018-07-03T01:10:15.782Z,15.70
2018-07-03T01:12:46.905Z,15.70
2018-07-03T01:15:17.891Z,15.60
2018-07-03T01:17:48.718Z,15.50
2018-07-03T01:20:19.666Z,15.40
2018-07-03T01:22:50.974Z,15.20
2018-07-03T01:25:21.958Z,15.10
2018-07-03T01:27:53.141Z,15.20
2018-07-03T01:30:24.124Z,15.10
2018-07-03T01:32:54.961Z,15.10
2018-07-03T01:35:26.095Z,15.10
2018-07-03T01:37:57.110Z,15.00
2018-07-03T01:40:28.254Z,14.80
2018-07-03T01:42:59.491Z,14.60
2018-07-03T01:45:30.339Z,14.40
2018-07-03T01:48:01.276Z,14.30
2018-07-03T01:50:32.350Z,14.10
2018-07-03T01:53:03.227Z,14.00
2018-07-03T01:55:34.367Z,13.90
2018-07-03T01:58:05.317Z,13.80
2018-07-03T02:00:36.472Z,13.70
2018-07-03T02:03:07.403Z,13.70
2018-07-03T02:05:38.480Z,13.60
2018-07-03T02:08:09.414Z,13.50
2018-07-03T02:10:40.390Z,13.40
2018-07-03T02:13:11.472Z,13.30
2018-07-03T02:15:42.418Z,13.30
2018-07-03T02:18:14.556Z,13.20
2018-07-03T02:20:45.844Z,13.20
2018-07-03T02:23:17.691Z,13.10
2018-07-03T02:25:48.665Z,13.00
2018-07-03T02:28:19.686Z,13.10
2018-07-03T02:30:50.606Z,13.10
2018-07-03T02:33:21.769Z,13.10
2018-07-03T02:35:52.860Z,13.20
2018-07-03T02:38:23.819Z,13.20
2018-07-03T02:40:55.009Z,13.20
2018-07-03T02:43:25.856Z,13.20
2018-07-03T02:45:56.851Z,13.10
2018-07-03T02:48:28.659Z,13.00
2018-07-03T02:50:59.660Z,12.90
2018-07-03T02:53:30.623Z,12.90
2018-07-03T02:56:01.575Z,12.90
2018-07-03T02:58:32.398Z,12.80
2018-07-03T03:01:03.266Z,12.70
2018-07-03T03:06:04.571Z,12.60
2018-07-03T03:08:35.398Z,12.60
2018-07-03T03:11:06.184Z,12.60
2018-07-03T03:13:37.124Z,12.50
2018-07-03T03:16:08.474Z,12.50
2018-07-03T03:18:39.466Z,12.50
2018-07-03T03:21:10.404Z,12.60
2018-07-03T03:23:41.565Z,12.50
2018-07-03T03:26:12.496Z,12.50
2018-07-03T03:28:43.266Z,12.50
2018-07-03T03:31:14.280Z,12.50
2018-07-03T03:33:45.303Z,12.50
2018-07-03T03:36:16.385Z,12.40
2018-07-03T03:38:47.505Z,12.40
2018-07-03T03:41:18.588Z,12.30
2018-07-03T03:43:49.561Z,12.40
2018-07-03T03:46:20.407Z,12.40
2018-07-03T03:48:51.549Z,12.30
2018-07-03T03:51:22.284Z,12.40
2018-07-03T03:53:53.055Z,12.40
2018-07-03T03:56:24.079Z,12.40
2018-07-03T03:58:55.049Z,12.40
2018-07-03T04:01:26.563Z,12.40
2018-07-03T04:03:57.433Z,12.40
2018-07-03T04:06:28.339Z,12.50
2018-07-03T04:08:59.311Z,12.50
2018-07-03T04:11:30.134Z,12.50
2018-07-03T04:14:01.142Z,12.50
2018-07-03T04:16:32.147Z,12.50
2018-07-03T04:19:03.104Z,12.60
2018-07-03T04:21:34.268Z,12.90
2018-07-03T04:24:05.209Z,13.70
2018-07-03T04:26:36.109Z,14.60
2018-07-03T04:29:06.969Z,15.50
2018-07-03T04:31:37.920Z,16.40
2018-07-03T04:34:09.070Z,17.10
2018-07-03T04:36:39.813Z,17.90
2018-07-03T04:39:11.434Z,18.50
2018-07-03T04:41:42.160Z,19.00
2018-07-03T04:44:13.022Z,19.60
2018-07-03T04:46:43.684Z,19.90
2018-07-03T04:49:14.400Z,20.10
2018-07-03T04:51:45.057Z,20.30
2018-07-03T04:54:15.887Z,20.60
2018-07-03T04:56:46.723Z,20.60
2018-07-03T04:59:17.473Z,20.90
2018-07-03T05:01:48.453Z,21.10
2018-07-03T05:04:19.169Z,21.20
2018-07-03T05:06:49.951Z,21.30
2018-07-03T05:09:20.617Z,21.40
2018-07-03T05:11:51.464Z,21.50
2018-07-03T05:14:22.166Z,21.70
2018-07-03T05:16:57.649Z,21.90
2018-07-03T05:19:30.198Z,22.00
2018-07-03T05:22:00.986Z,22.20
2018-07-03T05:24:31.657Z,22.40
2018-07-03T05:27:02.475Z,22.50
2018-07-03T05:29:33.316Z,22.70
2018-07-03T05:32:04.063Z,22.60
2018-07-03T05:34:34.772Z,22.80
2018-07-03T05:37:05.723Z,22.90
2018-07-03T05:39:36.483Z,22.90
2018-07-03T05:42:07.223Z,23.00
2018-07-03T05:44:37.826Z,23.10
2018-07-03T05:47:08.708Z,23.10
2018-07-03T05:49:39.311Z,23.00
2018-07-03T05:52:09.975Z,22.90
2018-07-03T05:54:40.739Z,22.90
2018-07-03T05:57:11.716Z,22.80
2018-07-03T05:59:42.470Z,22.70
2018-07-03T06:02:13.180Z,22.60
2018-07-03T06:04:43.937Z,22.40
2018-07-03T06:07:14.774Z,22.30
2018-07-03T06:09:45.490Z,22.20
2018-07-03T06:12:16.298Z,22.10
2018-07-03T06:14:47.080Z,22.00
2018-07-03T06:17:17.678Z,22.00
2018-07-03T06:19:48.476Z,21.90
2018-07-03T06:22:19.309Z,21.90
2018-07-03T06:24:50.555Z,21.90
2018-07-03T06:27:21.387Z,21.90
2018-07-03T06:29:52.177Z,21.90
2018-07-03T06:32:23.836Z,21.90
2018-07-03T06:34:54.670Z,21.90
2018-07-03T06:37:25.509Z,21.80
2018-07-03T06:39:56.287Z,21.80
2018-07-03T06:42:26.990Z,21.70
2018-07-03T06:44:57.780Z,21.70
2018-07-03T06:47:28.459Z,21.50
2018-07-03T06:49:59.179Z,21.30
2018-07-03T06:52:30.357Z,21.10
2018-07-03T06:55:01.372Z,21.10
2018-07-03T06:57:32.165Z,21.10
2018-07-03T07:00:03.008Z,21.00
2018-07-03T07:02:33.906Z,21.00
2018-07-03T07:05:05.099Z,21.00
2018-07-03T07:07:35.938Z,21.00
2018-07-03T07:10:07.430Z,21.10
2018-07-03T07:12:38.413Z,21.20
2018-07-03T07:15:09.776Z,21.10
2018-07-03T07:17:40.501Z,21.10
2018-07-03T07:20:11.297Z,21.10
2018-07-03T07:22:42.063Z,21.20
2018-07-03T07:25:12.779Z,21.30
2018-07-03T07:27:43.536Z,21.40
2018-07-03T07:30:14.219Z,21.50
2018-07-03T07:32:44.912Z,21.70
2018-07-03T07:35:15.780Z,21.80
2018-07-03T07:37:46.655Z,21.90
2018-07-03T07:40:17.448Z,21.90
2018-07-03T07:42:48.486Z,22.00
2018-07-03T07:45:19.219Z,22.10
2018-07-03T07:47:50.069Z,22.20
2018-07-03T07:50:20.829Z,22.30
2018-07-03T07:52:51.551Z,22.30
2018-07-03T07:55:22.353Z,22.30
2018-07-03T07:57:53.463Z,22.30
2018-07-03T08:00:24.304Z,22.40
2018-07-03T08:02:55.032Z,22.40
2018-07-03T08:05:25.890Z,22.50
2018-07-03T08:07:56.723Z,22.50
2018-07-03T08:10:27.447Z,22.60
2018-07-03T08:12:58.329Z,22.70
2018-07-03T08:15:29.366Z,22.70
2018-07-03T08:18:00.095Z,22.80
2018-07-03T08:20:31.104Z,22.90
2018-07-03T08:25:32.374Z,23.10
2018-07-03T08:28:03.131Z,23.20
2018-07-03T08:30:33.883Z,23.20
2018-07-03T08:33:04.815Z,23.30
2018-07-03T08:35:35.550Z,23.40
2018-07-03T08:38:06.499Z,23.40
2018-07-03T08:40:37.310Z,23.40
2018-07-03T08:43:08.571Z,23.40
2018-07-03T08:45:39.354Z,23.50
2018-07-03T08:48:10.929Z,23.40
2018-07-03T08:50:41.755Z,23.50
2018-07-03T08:53:12.488Z,23.60
2018-07-03T08:55:43.186Z,23.70
2018-07-03T08:58:14.075Z,23.80
2018-07-03T09:00:44.979Z,23.90
2018-07-03T09:03:21.658Z,23.90
2018-07-03T09:05:52.326Z,23.90
2018-07-03T09:08:23.071Z,23.90
2018-07-03T09:10:54.639Z,23.90
2018-07-03T09:13:25.420Z,23.90
2018-07-03T09:15:56.299Z,24.00
2018-07-03T09:18:27.140Z,24.00
2018-07-03T09:20:57.868Z,24.00
2018-07-03T09:23:28.792Z,24.10
2018-07-03T09:25:59.544Z,24.20
2018-07-03T09:28:30.331Z,24.30
2018-07-03T09:31:01.089Z,24.40
2018-07-03T09:33:31.824Z,24.60
2018-07-03T09:36:02.520Z,24.70
2018-07-03T09:38:33.224Z,24.80
2018-07-03T09:41:04.052Z,25.00
2018-07-03T09:43:34.774Z,25.10
2018-07-03T09:46:05.711Z,25.30
2018-07-03T09:48:36.644Z,25.40
2018-07-03T09:51:07.393Z,25.50
2018-07-03T09:53:38.234Z,25.50
2018-07-03T09:56:08.959Z,25.50
2018-07-03T09:58:39.671Z,25.50
2018-07-03T10:01:15.429Z,25.50
2018-07-03T10:03:46.138Z,25.50
2018-07-03T10:06:16.856Z,25.50
2018-07-03T10:08:47.509Z,25.50
2018-07-03T10:11:18.330Z,25.60
2018-07-03T10:13:49.179Z,25.60
2018-07-03T10:16:19.803Z,25.80
2018-07-03T10:18:50.518Z,25.80
2018-07-03T10:21:21.276Z,25.90
2018-07-03T10:23:52.131Z,25.90
2018-07-03T10:26:22.978Z,25.90
2018-07-03T10:28:54.094Z,25.90
2018-07-03T10:31:24.966Z,26.00
2018-07-03T10:33:55.665Z,25.90
2018-07-03T10:36:26.349Z,25.80
2018-07-03T10:38:57.083Z,25.80
2018-07-03T10:41:27.895Z,25.90
2018-07-03T10:43:58.711Z,25.90
2018-07-03T10:46:29.469Z,26.00
2018-07-03T10:49:00.317Z,26.10
2018-07-03T10:51:31.099Z,26.10
2018-07-03T10:54:01.827Z,26.00
2018-07-03T10:56:32.617Z,25.90
2018-07-03T10:59:03.247Z,25.80
2018-07-03T11:01:34.042Z,25.80
2018-07-03T11:04:04.929Z,26.00
2018-07-03T11:06:35.699Z,26.20
2018-07-03T11:09:10.092Z,26.30
2018-07-03T11:11:40.876Z,26.40
2018-07-03T11:14:11.648Z,26.50
2018-07-03T11:16:42.556Z,26.60
2018-07-03T11:19:13.326Z,26.70
2018-07-03T11:21:44.000Z,26.80
2018-07-03T11:24:14.789Z,26.90
2018-07-03T11:26:45.518Z,27.00
2018-07-03T11:31:46.631Z,27.40
2018-07-03T11:34:17.438Z,27.60
2018-07-03T11:36:48.218Z,27.60
2018-07-03T11:39:18.903Z,27.70
2018-07-03T11:41:49.711Z,27.70
2018-07-03T11:44:20.842Z,27.70
2018-07-03T11:46:51.614Z,27.80
2018-07-03T11:49:22.486Z,27.90
2018-07-03T11:51:53.250Z,28.00
2018-07-03T11:54:24.094Z,28.00
2018-07-03T11:56:54.937Z,28.10
2018-07-03T11:59:25.729Z,28.10
2018-07-03T12:01:56.572Z,28.20
2018-07-03T12:04:27.296Z,28.20
2018-07-03T12:06:58.088Z,28.30
2018-07-03T12:09:28.891Z,28.30
2018-07-03T12:11:59.828Z,28.30
2018-07-03T12:14:30.683Z,28.50
2018-07-03T12:17:01.435Z,28.60
2018-07-03T12:19:32.245Z,28.70
2018-07-03T12:22:03.000Z,28.70
2018-07-03T12:24:33.907Z,28.70
2018-07-03T12:27:04.684Z,28.70
2018-07-03T12:29:35.489Z,28.80
2018-07-03T12:32:06.322Z,28.80
2018-07-03T12:34:37.042Z,28.80
2018-07-03T12:37:07.872Z,28.80
2018-07-03T12:39:38.540Z,28.90
2018-07-03T12:42:09.492Z,28.90
2018-07-03T12:44:40.291Z,28.70
2018-07-03T12:47:11.033Z,28.50
2018-07-03T12:49:41.702Z,28.50
2018-07-03T12:52:12.502Z,28.60
2018-07-03T12:54:43.259Z,28.60
2018-07-03T12:57:14.148Z,28.60
2018-07-03T12:59:44.928Z,28.60
2018-07-03T13:02:15.765Z,28.50
2018-07-03T13:04:46.477Z,28.50
2018-07-03T13:07:17.390Z,28.50
2018-07-03T13:09:48.264Z,28.60
2018-07-03T13:12:18.924Z,28.50
2018-07-03T13:14:49.594Z,28.60
2018-07-03T13:17:20.367Z,28.50
2018-07-03T13:19:51.198Z,28.50
2018-07-03T13:22:21.988Z,28.40
2018-07-03T13:24:52.720Z,28.40
2018-07-03T13:27:23.597Z,28.50
2018-07-03T13:29:54.285Z,28.50
2018-07-03T13:32:24.976Z,28.60
2018-07-03T13:34:55.680Z,28.70
2018-07-03T13:37:26.448Z,28.70
2018-07-03T13:39:57.644Z,28.80
2018-07-03T13:42:28.304Z,28.80
2018-07-03T13:44:59.118Z,28.80
2018-07-03T13:47:29.969Z,28.70
2018-07-03T13:50:00.890Z,28.70
2018-07-03T13:52:31.589Z,28.70
2018-07-03T13:55:02.380Z,28.70
2018-07-03T13:57:33.066Z,28.70
2018-07-03T14:00:03.731Z,28.60
2018-07-03T14:02:34.492Z,28.50
2018-07-03T14:05:05.504Z,28.40
2018-07-03T14:07:36.452Z,28.40
2018-07-03T14:10:07.258Z,28.40
2018-07-03T14:12:37.968Z,28.40
2018-07-03T14:15:09.503Z,28.40
2018-07-03T14:17:40.399Z,28.40
2018-07-03T14:20:11.146Z,28.40
2018-07-03T14:22:42.014Z,28.40
2018-07-03T14:25:12.914Z,28.50
2018-07-03T14:27:43.791Z,28.60
2018-07-03T14:30:14.580Z,28.60
2018-07-03T14:32:45.339Z,28.70
2018-07-03T14:35:16.071Z,28.70
2018-07-03T14:37:47.505Z,28.70
2018-07-03T14:40:18.242Z,28.80
2018-07-03T14:42:48.965Z,28.80
2018-07-03T14:45:19.754Z,28.90
2018-07-03T14:47:50.600Z,28.90
2018-07-03T14:50:21.494Z,29.00
2018-07-03T14:52:52.467Z,29.10
2018-07-03T14:55:23.241Z,29.10
2018-07-03T14:57:54.088Z,29.10
2018-07-03T15:00:24.883Z,29.10
2018-07-03T15:02:55.645Z,29.10
2018-07-03T15:05:26.511Z,29.00
2018-07-03T15:07:57.335Z,29.10
2018-07-03T15:10:28.100Z,29.20
2018-07-03T15:12:58.784Z,29.20
2018-07-03T15:17:59.593Z,29.30
2018-07-03T15:20:30.508Z,29.30
2018-07-03T15:23:01.229Z,29.30
2018-07-03T15:25:32.075Z,29.30
2018-07-03T15:28:02.836Z,29.30
2018-07-03T15:30:33.552Z,29.30
2018-07-03T15:33:04.395Z,29.10
2018-07-03T15:35:35.310Z,29.10
2018-07-03T15:38:06.095Z,29.00
2018-07-03T15:40:36.931Z,28.90
2018-07-03T15:43:07.600Z,28.80
2018-07-03T15:45:38.335Z,28.90
2018-07-03T15:48:14.814Z,28.90
2018-07-03T15:50:45.545Z,29.00
2018-07-03T15:53:16.199Z,29.10
2018-07-03T15:55:46.837Z,29.10
2018-07-03T15:58:17.428Z,29.10
2018-07-03T16:00:48.151Z,29.10
2018-07-03T16:05:39.945Z,29.10
2018-07-03T16:08:26.427Z,29.10
2018-07-03T16:10:57.099Z,29.10
2018-07-03T16:13:27.744Z,29.20
2018-07-03T16:15:58.425Z,29.10
2018-07-03T16:18:29.189Z,28.80
2018-07-03T16:20:59.947Z,28.50
2018-07-03T16:23:30.892Z,28.50
2018-07-03T16:26:01.795Z,28.60
2018-07-03T16:28:32.744Z,28.60
2018-07-03T16:31:03.583Z,28.70
2018-07-03T16:33:34.281Z,28.80
2018-07-03T16:36:05.151Z,28.90
2018-07-03T16:38:35.947Z,29.00
2018-07-03T16:41:06.725Z,29.20
2018-07-03T16:43:37.431Z,29.50
2018-07-03T16:46:08.185Z,29.90
2018-07-03T16:48:39.413Z,31.00
2018-07-03T16:51:11.369Z,32.80
2018-07-03T16:53:42.140Z,34.90
2018-07-03T16:56:12.808Z,36.80
2018-07-03T16:58:43.555Z,38.20
2018-07-03T17:01:14.258Z,39.50
2018-07-03T17:06:15.103Z,41.10
2018-07-03T17:08:45.969Z,40.40
2018-07-03T17:11:16.770Z,39.00
2018-07-03T17:13:47.694Z,37.70
2018-07-03T17:16:18.405Z,38.00
2018-07-03T17:18:54.259Z,39.60
2018-07-03T17:21:24.950Z,41.10
2018-07-03T17:23:55.748Z,40.30
2018-07-03T17:26:26.691Z,40.30
2018-07-03T17:28:57.506Z,42.00
2018-07-03T17:31:28.339Z,43.80
2018-07-03T17:33:59.132Z,45.50
2018-07-03T17:36:29.847Z,47.10
2018-07-03T17:39:13.972Z,48.60
2018-07-03T17:41:55.763Z,49.60
2018-07-03T17:44:41.460Z,50.20
2018-07-03T17:47:12.193Z,49.90
2018-07-03T17:49:42.904Z,48.80
2018-07-03T17:52:13.664Z,47.60
2018-07-03T17:54:44.564Z,45.20
2018-07-03T17:57:15.339Z,42.30
2018-07-03T17:59:46.156Z,40.10
2018-07-03T18:02:16.959Z,38.70
2018-07-03T18:04:47.747Z,37.40
2018-07-03T18:07:18.476Z,36.70
2018-07-03T18:09:49.314Z,36.10
2018-07-03T18:12:20.043Z,35.10
2018-07-03T18:14:50.919Z,34.80
2018-07-03T18:17:21.768Z,34.90
2018-07-03T18:19:52.459Z,34.90
2018-07-03T18:22:23.259Z,34.90
2018-07-03T18:24:54.119Z,34.70
2018-07-03T18:27:25.028Z,34.80
2018-07-03T18:29:55.950Z,34.90
2018-07-03T18:32:27.217Z,35.20
2018-07-03T18:34:58.241Z,35.50
2018-07-03T18:37:28.984Z,35.70
2018-07-03T18:39:59.639Z,36.00
2018-07-03T18:42:30.468Z,35.50
2018-07-03T18:45:01.174Z,34.90
2018-07-03T18:47:31.963Z,34.20
2018-07-03T18:50:02.643Z,33.50
2018-07-03T18:52:33.688Z,32.60
2018-07-03T18:55:04.483Z,31.40
2018-07-03T18:57:35.148Z,30.50
2018-07-03T19:00:06.352Z,29.70
2018-07-03T19:02:37.130Z,29.00
2018-07-03T19:05:08.211Z,28.50
2018-07-03T19:07:39.058Z,27.90
2018-07-03T19:10:09.854Z,27.50
2018-07-03T19:12:40.621Z,27.10
2018-07-03T19:15:11.511Z,26.80
2018-07-03T19:17:42.311Z,26.50
2018-07-03T19:20:13.069Z,26.10
2018-07-03T19:22:43.935Z,25.80
2018-07-03T19:25:14.767Z,25.50
2018-07-03T19:27:45.455Z,25.20
2018-07-03T19:30:16.234Z,25.00
2018-07-03T19:32:47.176Z,24.70
2018-07-03T19:35:18.031Z,24.50
2018-07-03T19:37:49.096Z,24.20
2018-07-03T19:40:20.207Z,24.00
2018-07-03T19:43:32.125Z,23.70
2018-07-03T19:46:03.342Z,23.60
2018-07-03T19:48:33.953Z,23.40
2018-07-03T19:53:34.852Z,23.10
2018-07-03T19:56:05.778Z,22.80
2018-07-03T19:58:36.516Z,22.70
2018-07-03T20:01:08.198Z,22.60
2018-07-03T20:03:38.991Z,22.50
2018-07-03T20:06:09.727Z,22.40
2018-07-03T20:08:40.544Z,22.20
2018-07-03T20:11:11.281Z,22.10
2018-07-03T20:13:41.999Z,22.00
2018-07-03T20:16:12.723Z,21.80
2018-07-03T20:18:43.549Z,21.60
2018-07-03T20:21:14.489Z,21.50
2018-07-03T20:23:45.210Z,21.40
2018-07-03T20:26:15.951Z,21.20
2018-07-03T20:28:46.667Z,21.10
2018-07-03T20:31:17.379Z,21.00
2018-07-03T20:33:48.357Z,20.90
2018-07-03T20:36:19.110Z,20.70
2018-07-03T20:38:49.835Z,20.60
2018-07-03T20:41:20.753Z,20.50
2018-07-03T20:43:51.526Z,20.40
2018-07-03T20:46:22.445Z,20.30
2018-07-03T20:48:53.170Z,20.30
2018-07-03T20:51:23.961Z,20.20
2018-07-03T20:53:54.736Z,20.10
2018-07-03T20:56:25.532Z,20.00
2018-07-03T20:58:56.259Z,19.90
2018-07-03T21:01:27.148Z,19.70
2018-07-03T21:03:57.805Z,19.60
2018-07-03T21:06:28.873Z,19.50
2018-07-03T21:08:59.660Z,19.40
2018-07-03T21:11:30.477Z,19.40
2018-07-03T21:14:01.232Z,19.30
2018-07-03T21:16:32.018Z,19.20
2018-07-03T21:19:02.876Z,19.10
2018-07-03T21:21:33.588Z,19.00
2018-07-03T21:24:04.500Z,18.90
2018-07-03T21:26:35.265Z,18.80
2018-07-03T21:29:06.148Z,18.70
2018-07-03T21:31:37.058Z,18.50
2018-07-03T21:34:07.757Z,18.40
2018-07-03T21:36:38.443Z,18.30
2018-07-03T21:39:09.189Z,18.20
2018-07-03T21:41:40.071Z,18.10
2018-07-03T21:44:10.821Z,18.10
2018-07-03T21:46:41.631Z,18.00
2018-07-03T21:49:12.369Z,18.10
2018-07-03T21:51:42.999Z,18.30
2018-07-03T21:54:13.705Z,18.20
2018-07-03T21:56:44.771Z,18.20
2018-07-03T21:59:16.334Z,18.10
2018-07-03T22:01:47.112Z,18.00
2018-07-03T22:04:17.796Z,18.00
2018-07-03T22:06:48.742Z,17.90
2018-07-03T22:09:19.569Z,17.80
2018-07-03T22:11:50.454Z,17.80
2018-07-03T22:14:21.164Z,17.70
2018-07-03T22:16:51.808Z,17.60
2018-07-03T22:19:22.779Z,17.50
2018-07-03T22:21:53.599Z,17.40
2018-07-03T22:24:24.609Z,17.20
2018-07-03T22:26:55.628Z,17.20
2018-07-03T22:29:26.715Z,17.10
2018-07-03T22:31:57.467Z,17.00
2018-07-03T22:34:28.385Z,17.00
2018-07-03T22:36:59.205Z,17.00
2018-07-03T22:39:30.487Z,16.90
2018-07-03T22:42:01.686Z,16.90
2018-07-03T22:44:32.619Z,16.80
2018-07-03T22:47:03.612Z,16.80
2018-07-03T22:49:34.434Z,16.80
2018-07-03T22:52:05.584Z,16.80
2018-07-03T22:54:36.492Z,16.80
2018-07-03T22:57:07.664Z,16.70
2018-07-03T22:59:38.582Z,16.70
2018-07-03T23:02:09.619Z,16.60
2018-07-03T23:04:40.632Z,16.50
2018-07-03T23:07:11.389Z,16.40
2018-07-03T23:09:42.183Z,16.30
2018-07-03T23:12:18.101Z,16.20
2018-07-03T23:14:50.935Z,16.20
2018-07-03T23:17:21.651Z,16.10
2018-07-03T23:19:52.348Z,16.10
2018-07-03T23:22:23.049Z,16.00
2018-07-03T23:24:53.866Z,15.90
2018-07-03T23:27:24.611Z,15.80
2018-07-03T23:29:55.372Z,15.80
2018-07-03T23:32:26.140Z,15.80
2018-07-03T23:34:56.981Z,15.80
2018-07-03T23:37:28.061Z,16.00
2018-07-03T23:39:59.120Z,16.00
2018-07-03T23:42:30.028Z,16.10
2018-07-03T23:45:01.138Z,16.10
2018-07-03T23:47:42.863Z,16.10
2018-07-03T23:50:30.300Z,16.00
2018-07-03T23:53:17.852Z,15.90
2018-07-03T23:56:05.549Z,15.90
2018-07-03T23:58:53.092Z,15.80
